Portada
METAR-TAF:

METAR-TAF

Aeropuertos :

Pittsburg, Kansas, Estados Unidos

latitud: 37-26-58N, longitud: 094-43-52W, altitud: 290 m

Observación

El informe se hizo hace 18 minutos, a las 01:55 UTC
Viento 3 kt del noroeste
Temperatura 18°C
Humedad 94%
Presión 1016 hPa
Visibilidad: 16.1 km
Cielo despejado

METAR: KPTS 290155Z AUTO 31003KT 10SM CLR 18/17 A3001 RMK AO2 T01760174

Hora: 21:13 (02:13 UTC)


TAF: falta

Observaciones y pronósticos meteorológicos de más de 4000 aeropuertos (mensajes METAR y TAF).

Los puntos amarillos y rojos representan las estaciones disponibles.

Ponga el ratón en el punto deseado para ver el nombre de la estación.

Haga clic para ver las observaciones y los pronósticos meteorológicos.

Para cambiar el mapa : haga clic en los botones verdes con una cruz de color negro para hacer un zoom, en el botón verde con un guión para alejar o en las flechas verdes para mapas adyacentes.


METAR-TAF: